| time (UTC) | temp F | wind direction | speed knots | gust knots | rain 1hr in | rain 24hr in | rain mn in | humidity % | barometer mb |
| 20260906140107 | 74 | 38 | 1.7 | 3.5 | 0.00 | 0.00 | 0.00 | 88 | 1017.2 |
| 20260906134608 | 74 | 46 | 0.9 | 4.3 | 0.00 | 0.00 | 0.00 | 87 | 1017.5 |
| 20260906133119 | 73 | 309 | 0.9 | 3.5 | 0.00 | 0.00 | 0.00 | 89 | 1017.3 |
| 20260906131605 | 73 | 178 | 0.9 | 4.3 | 0.00 | 0.00 | 0.00 | 90 | 1017.2 |
| 20260906130117 | 72 | 221 | 0.0 | 4.3 | 0.00 | 0.00 | 0.00 | 90 | 1017.0 |
| 20260906124601 | 72 | 338 | 0.9 | 3.5 | 0.00 | 0.00 | 0.00 | 91 | 1016.9 |
| 20260906123104 | 72 | 0 | 0.9 | 2.6 | 0.00 | 0.00 | 0.00 | 91 | 1016.7 |
| 20260906121606 | 72 | 0 | 0.0 | 2.6 | 0.00 | 0.00 | 0.00 | 91 | 1016.6 |
| 20260906120119 | 72 | 0 | 0.9 | 2.6 | 0.00 | 0.00 | 0.00 | 90 | 1016.7 |
| 20260906114601 | 72 | 0 | 0.0 | 1.7 | 0.00 | 0.00 | 0.00 | 90 | 1016.4 |
| 20260906113104 | 72 | 0 | 0.0 | 1.7 | 0.00 | 0.00 | 0.00 | 90 | 1016.1 |
| 20260906111604 | 73 | 178 | 0.0 | 2.6 | 0.00 | 0.00 | 0.00 | 89 | 1016.0 |
| 20260906110103 | 73 | 0 | 0.0 | 2.6 | 0.00 | 0.00 | 0.00 | 89 | 1015.9 |
| 20260906104602 | 74 | 282 | 0.0 | 1.7 | 0.00 | 0.00 | 0.00 | 89 | 1015.8 |
| 20260906103101 | 74 | 51 | 0.0 | 3.5 | 0.00 | 0.00 | 0.00 | 89 | 1015.8 |
| 20260906101606 | 74 | 0 | 0.0 | 2.6 | 0.00 | 0.00 | 0.00 | 88 | 1015.7 |
| 20260906100103 | 75 | 0 | 0.0 | 1.7 | 0.00 | 0.00 | 0.00 | 88 | 1015.6 |
| 20260906094610 | 75 | 341 | 0.9 | 3.5 | 0.00 | 0.00 | 0.00 | 88 | 1015.2 |
| 20260906093118 | 76 | 334 | 0.0 | 1.7 | 0.00 | 0.00 | 0.00 | 87 | 1015.1 |
| 20260906091617 | 76 | 321 | 0.0 | 3.5 | 0.00 | 0.00 | 0.00 | 87 | 1015.1 |
| 20260906090140 | 76 | 0 | 0.0 | 2.6 | 0.00 | 0.00 | 0.00 | 87 | 1015.2 |
| 20260906084627 | 76 | 0 | 0.0 | 1.7 | 0.00 | 0.00 | 0.00 | 87 | 1015.1 |
| 20260906083103 | 77 | 22 | 0.0 | 1.7 | 0.00 | 0.00 | 0.00 | 87 | 1014.9 |
| 20260906081603 | 77 | 0 | 0.0 | 2.6 | 0.00 | 0.00 | 0.00 | 86 | 1014.9 |
| 20260906080110 | 78 | 9 | 0.0 | 2.6 | 0.00 | 0.00 | 0.00 | 87 | 1014.9 |
| 20260906074605 | 78 | 9 | 0.0 | 2.6 | 0.00 | 0.00 | 0.00 | 87 | 1015.0 |
| 20260906073104 | 79 | 221 | 0.0 | 1.7 | 0.00 | 0.00 | 0.00 | 87 | 1015.0 |
| 20260906071603 | 79 | 61 | 0.0 | 2.6 | 0.00 | 0.00 | 0.00 | 87 | 1014.9 |
| 20260906070105 | 79 | 0 | 0.0 | 2.6 | 0.00 | 0.00 | 0.00 | 86 | 1014.8 |
| 20260906064602 | 80 | 265 | 0.0 | 1.7 | 0.00 | 0.00 | 0.00 | 86 | 1014.9 |
| 20260906063104 | 80 | 338 | 0.0 | 5.2 | 0.00 | 0.00 | 0.00 | 85 | 1014.8 |
| 20260906061607 | 81 | 0 | 0.9 | 4.3 | 0.00 | 0.00 | 0.00 | 84 | 1014.7 |
| 20260906060106 | 82 | 137 | 1.7 | 10.4 | 0.00 | 0.00 | 0.00 | 83 | 1015.1 |
| 20260906054607 | 82 | 39 | 0.9 | 7.0 | 0.00 | 0.00 | 0.00 | 83 | 1015.0 |
| 20260906053119 | 82 | 93 | 0.9 | 6.1 | 0.00 | 0.00 | 0.00 | 83 | 1014.9 |
| 20260906051613 | 82 | 0 | 0.0 | 1.7 | 0.00 | 0.00 | 0.00 | 83 | 1015.0 |
| 20260906050106 | 82 | 0 | 0.0 | 1.7 | 0.00 | 0.00 | 0.00 | 82 | 1014.6 |
| 20260906044621 | 82 | 0 | 0.0 | 1.7 | 0.00 | 0.00 | 0.00 | 81 | 1014.5 |
| 20260906043104 | 82 | 93 | 0.0 | 1.7 | 0.00 | 0.00 | 0.00 | 80 | 1014.5 |
| 20260906041601 | 83 | 0 | 0.0 | 1.7 | 0.00 | 0.00 | 0.00 | 79 | 1014.3 |
| 20260906040105 | 83 | 0 | 0.0 | 0.9 | 0.00 | 0.00 | 0.00 | 78 | 1014.2 |
| 20260906034603 | 83 | 0 | 0.0 | 0.9 | 0.00 | 0.00 | 0.00 | 77 | 1014.2 |
| 20260906033104 | 83 | 291 | 0.0 | 1.7 | 0.00 | 0.00 | 0.00 | 76 | 1014.2 |
| 20260906031605 | 83 | 0 | 0.0 | 2.6 | 0.00 | 0.00 | 0.00 | 75 | 1013.9 |
| 20260906030107 | 83 | 0 | 0.0 | 1.7 | 0.00 | 0.00 | 0.00 | 74 | 1013.8 |
| 20260906024623 | 83 | 0 | 0.0 | 1.7 | 0.00 | 0.00 | 0.00 | 73 | 1013.8 |
| 20260906023106 | 84 | 0 | 0.0 | 0.9 | 0.00 | 0.00 | 0.00 | 72 | 1013.5 |
| 20260906021608 | 84 | 0 | 0.0 | 0.9 | 0.00 | 0.00 | 0.00 | 72 | 1013.3 |
| 20260906020108 | 84 | 0 | 0.0 | 0.9 | 0.00 | 0.00 | 0.00 | 72 | 1013.2 |
| 20260906014605 | 85 | 0 | 0.0 | 0.9 | 0.00 | 0.00 | 0.00 | 71 | 1012.9 |
| 20260906013109 | 85 | 0 | 0.0 | 0.9 | 0.00 | 0.00 | 0.00 | 70 | 1012.8 |
| 20260906011604 | 85 | 0 | 0.0 | 0.9 | 0.00 | 0.00 | 0.00 | 70 | 1012.8 |
| 20260906010132 | 86 | 0 | 0.0 | 1.7 | 0.00 | 0.00 | 0.00 | 68 | 1012.7 |
| 20260906004605 | 87 | 0 | 0.0 | 0.9 | 0.00 | 0.00 | 0.00 | 66 | 1012.5 |
| 20260906003107 | 88 | 0 | 0.0 | 1.7 | 0.00 | 0.00 | 0.00 | 65 | 1012.5 |
| 20260906001611 | 89 | 0 | 0.0 | 1.7 | 0.00 | 0.00 | 0.00 | 63 | 1012.4 |
| 20260906000107 | 90 | 0 | 0.0 | 1.7 | 0.00 | 0.00 | 0.00 | 62 | 1012.2 |
| 20260905234608 | 92 | 93 | 0.0 | 1.7 | 0.00 | 0.00 | 0.00 | 60 | 1012.4 |
| 20260905233115 | 92 | 0 | 0.0 | 3.5 | 0.00 | 0.00 | 0.00 | 59 | 1012.4 |
| 20260905231603 | 93 | 51 | 0.0 | 1.7 | 0.00 | 0.00 | 0.00 | 59 | 1012.5 |
| 20260905230122 | 94 | 68 | 0.0 | 3.5 | 0.00 | 0.00 | 0.00 | 54 | 1012.4 |
| 20260905224606 | 96 | 336 | 0.0 | 3.5 | 0.00 | 0.00 | 0.00 | 55 | 1012.7 |
| 20260905223105 | 98 | 119 | 0.9 | 3.5 | 0.00 | 0.00 | 0.00 | 54 | 1012.3 |
| 20260905221608 | 99 | 0 | 0.9 | 7.0 | 0.00 | 0.00 | 0.00 | 50 | 1012.1 |
| 20260905220105 | 101 | 0 | 0.9 | 5.2 | 0.00 | 0.00 | 0.00 | 46 | 1012.3 |
| 20260905214602 | 104 | 51 | 0.9 | 9.6 | 0.00 | 0.00 | 0.00 | 41 | 1012.2 |
| 20260905213107 | 104 | 247 | 0.9 | 6.1 | 0.00 | 0.00 | 0.00 | 39 | 1012.2 |
| 20260905211603 | 104 | 295 | 2.6 | 7.8 | 0.00 | 0.00 | 0.00 | 41 | 1012.4 |
| 20260905210107 | 104 | 51 | 2.6 | 10.4 | 0.00 | 0.00 | 0.00 | 40 | 1012.7 |
| 20260905204612 | 104 | 298 | 1.7 | 6.1 | 0.00 | 0.00 | 0.00 | 41 | 1012.6 |
| 20260905203107 | 103 | 301 | 1.7 | 7.0 | 0.00 | 0.00 | 0.00 | 43 | 1012.7 |
| 20260905201610 | 105 | 344 | 1.7 | 7.0 | 0.00 | 0.00 | 0.00 | 40 | 1012.8 |
| 20260905200110 | 105 | 0 | 2.6 | 9.6 | 0.00 | 0.00 | 0.00 | 40 | 1012.9 |
| 20260905194605 | 106 | 165 | 2.6 | 7.8 | 0.00 | 0.00 | 0.00 | 38 | 1013.0 |
| 20260905193104 | 104 | 284 | 0.9 | 7.8 | 0.00 | 0.00 | 0.00 | 38 | 1013.2 |
| 20260905191602 | 105 | 47 | 0.9 | 7.0 | 0.00 | 0.00 | 0.00 | 40 | 1013.5 |
| 20260905190104 | 105 | 34 | 1.7 | 7.0 | 0.00 | 0.00 | 0.00 | 41 | 1013.4 |
| 20260905184613 | 104 | 32 | 1.7 | 8.7 | 0.00 | 0.00 | 0.00 | 42 | 1013.6 |
| 20260905183115 | 104 | 63 | 1.7 | 9.6 | 0.00 | 0.00 | 0.00 | 42 | 1014.0 |
| 20260905181603 | 103 | 279 | 0.9 | 4.3 | 0.00 | 0.00 | 0.00 | 44 | 1014.1 |
| 20260905180106 | 103 | 158 | 1.7 | 7.8 | 0.00 | 0.00 | 0.00 | 48 | 1014.0 |
| 20260905174608 | 102 | 338 | 1.7 | 6.1 | 0.00 | 0.00 | 0.00 | 51 | 1014.1 |
| 20260905173108 | 101 | 64 | 0.9 | 5.2 | 0.00 | 0.00 | 0.00 | 48 | 1014.3 |
| 20260905171603 | 100 | 9 | 1.7 | 5.2 | 0.00 | 0.00 | 0.00 | 51 | 1014.5 |
| 20260905170112 | 99 | 334 | 0.9 | 6.1 | 0.00 | 0.00 | 0.00 | 53 | 1014.6 |
| 20260905164608 | 98 | 51 | 1.7 | 6.1 | 0.00 | 0.00 | 0.00 | 52 | 1014.7 |
| 20260905163105 | 98 | 338 | 0.9 | 7.8 | 0.00 | 0.00 | 0.00 | 51 | 1014.9 |
| 20260905161601 | 98 | 265 | 0.9 | 3.5 | 0.00 | 0.00 | 0.00 | 54 | 1015.0 |
| 20260905154606 | 96 | 41 | 0.9 | 4.3 | 0.00 | 0.00 | 0.00 | 55 | 1015.1 |
| 20260905153105 | 94 | 0 | 0.9 | 7.8 | 0.00 | 0.00 | 0.00 | 58 | 1015.1 |
| 20260905151611 | 92 | 38 | 0.9 | 7.8 | 0.00 | 0.00 | 0.00 | 60 | 1015.0 |
| 20260905144603 | 90 | 126 | 0.0 | 3.5 | 0.00 | 0.00 | 0.00 | 66 | 1014.9 |
| 20260905143104 | 88 | 265 | 0.0 | 2.6 | 0.00 | 0.00 | 0.00 | 67 | 1015.0 |
| 20260905141604 | 87 | 282 | 0.0 | 3.5 | 0.00 | 0.00 | 0.00 | 68 | 1015.0 |